Weather at Roswell Air Center Airport

Public forecast

Using degrees Fahrenheit for public forecast. Weather courtesy of forecast.io.

Current aviation weather report (METAR) for Roswell Air Center Airport

2024/04/23 01:51 (retrieved 52 minutes ago)

KROW 230151Z 16018G27KT 10SM CLR 24/07 A2988 RMK AO2 PK WND 16028/0107 SLP068 T02440072

Closest aviation forecast (TAF) to Roswell Air Center Airport

Forecast is more than 6 hours old.

Closest forecast is Biggs Army Air Field (Fort Bliss), 127.9 nm (236.8 km) SW.

2024/04/22 19:05 (retrieved 8 hours ago)

TAF KBIF 221900Z 2219/2401 14009KT 9999 SKC QNH3000INS BECMG 2318/2319 25010G15KT 9999 SKC 510013 QNH2994INS TX31/2322Z TN11/2313Z